createdAt,value
2018-06-24T00:03:00.059Z,8.23
2018-06-24T00:08:03.520Z,8.48
2018-06-24T00:13:07.155Z,8.80
2018-06-24T00:18:11.923Z,8.40
2018-06-24T00:23:18.393Z,8.63
2018-06-24T00:28:23.898Z,7.07
2018-06-24T00:33:27.543Z,6.83
2018-06-24T00:38:35.489Z,8.30
2018-06-24T00:43:39.047Z,8.80
2018-06-24T00:48:44.683Z,8.20
2018-06-24T00:53:52.891Z,8.40
2018-06-24T00:58:58.481Z,9.33
2018-06-24T01:04:02.958Z,8.90
2018-06-24T01:09:08.251Z,8.10
2018-06-24T01:14:11.812Z,8.48
2018-06-24T01:19:15.992Z,8.25
2018-06-24T01:24:20.600Z,7.60
2018-06-24T01:29:23.851Z,7.20
2018-06-24T01:34:27.550Z,9.80
2018-06-24T01:39:31.108Z,8.60
2018-06-24T01:44:34.979Z,8.30
2018-06-24T01:49:38.695Z,7.55
2018-06-24T01:54:43.800Z,7.50
2018-06-24T01:59:48.307Z,8.50
2018-06-24T02:04:51.815Z,7.35
2018-06-24T02:09:55.328Z,7.40
2018-06-24T02:14:58.862Z,8.28
2018-06-24T02:20:02.483Z,7.70
2018-06-24T02:25:05.987Z,8.30
2018-06-24T02:30:09.470Z,8.77
2018-06-24T02:35:13.007Z,8.43
2018-06-24T02:40:16.521Z,10.03
2018-06-24T02:45:20.781Z,8.70
2018-06-24T02:50:25.943Z,9.25
2018-06-24T02:55:29.543Z,9.03
2018-06-24T03:00:35.104Z,9.20
2018-06-24T03:05:38.803Z,8.33
2018-06-24T03:10:42.436Z,8.45
2018-06-24T03:15:46.770Z,9.70
2018-06-24T03:20:50.442Z,9.08
2018-06-24T03:25:54.194Z,9.95
2018-06-24T03:30:57.753Z,8.35
2018-06-24T03:36:01.477Z,8.90
2018-06-24T03:41:05.368Z,8.83
2018-06-24T03:46:09.033Z,9.07
2018-06-24T03:57:19.146Z,8.55
2018-06-24T04:02:22.774Z,8.70
2018-06-24T04:07:27.547Z,9.77
2018-06-24T04:12:31.207Z,9.20
2018-06-24T04:17:34.794Z,8.83
2018-06-24T04:22:39.681Z,9.50
2018-06-24T04:27:47.160Z,9.73
2018-06-24T04:32:53.371Z,9.87
2018-06-24T04:37:57.156Z,7.55
2018-06-24T04:43:00.854Z,8.48
2018-06-24T04:48:04.906Z,8.68
2018-06-24T04:53:08.415Z,7.70
2018-06-24T04:58:11.888Z,7.45
2018-06-24T05:03:16.270Z,7.50
2018-06-24T05:08:19.790Z,7.37
2018-06-24T05:13:23.423Z,7.50
2018-06-24T05:18:26.960Z,6.95
2018-06-24T05:23:30.548Z,6.50
2018-06-24T05:28:35.300Z,6.00
2018-06-24T05:33:38.817Z,7.10
2018-06-24T05:38:42.818Z,6.05
2018-06-24T05:43:46.355Z,6.12
2018-06-24T05:48:50.038Z,6.70
2018-06-24T05:53:53.699Z,6.12
2018-06-24T05:58:57.542Z,6.40
2018-06-24T06:04:01.193Z,6.50
2018-06-24T06:09:08.220Z,6.13
2018-06-24T06:14:16.236Z,6.40
2018-06-24T06:19:20.089Z,5.80
2018-06-24T06:24:23.716Z,6.10
2018-06-24T06:29:27.484Z,6.40
2018-06-24T06:34:34.537Z,5.03
2018-06-24T06:39:38.146Z,4.70
2018-06-24T06:44:41.839Z,5.03
2018-06-24T06:49:45.299Z,4.95
2018-06-24T06:54:50.332Z,5.17
2018-06-24T06:59:54.044Z,4.20
2018-06-24T07:04:57.576Z,3.80
2018-06-24T07:10:02.652Z,3.83
2018-06-24T07:15:07.358Z,3.90
2018-06-24T07:20:10.945Z,3.60
2018-06-24T07:25:15.004Z,3.98
2018-06-24T07:30:19.006Z,3.70
2018-06-24T07:35:23.070Z,3.40
2018-06-24T07:40:30.438Z,2.20
2018-06-24T07:45:35.561Z,2.40
2018-06-24T07:50:40.803Z,2.90
2018-06-24T07:55:47.114Z,3.20
2018-06-24T08:00:51.421Z,3.10
2018-06-24T08:05:55.397Z,3.30
2018-06-24T08:11:00.208Z,3.00
2018-06-24T08:16:04.745Z,4.50
2018-06-24T08:21:09.430Z,4.23
2018-06-24T08:26:13.007Z,4.10
2018-06-24T08:31:16.629Z,4.20
2018-06-24T08:36:21.520Z,3.92
2018-06-24T08:41:25.230Z,3.77
2018-06-24T08:46:29.190Z,4.55
2018-06-24T08:51:38.189Z,4.30
2018-06-24T08:56:42.983Z,4.10
2018-06-24T09:01:46.708Z,5.03
2018-06-24T09:06:52.139Z,4.70
2018-06-24T09:11:57.911Z,5.00
2018-06-24T09:17:02.287Z,6.00
2018-06-24T09:22:06.172Z,7.10
2018-06-24T09:27:09.911Z,8.43
2018-06-24T09:32:13.466Z,12.13
2018-06-24T09:37:16.806Z,11.40
2018-06-24T09:42:20.464Z,11.77
2018-06-24T09:47:24.054Z,12.00
2018-06-24T09:52:27.428Z,11.15
2018-06-24T09:57:30.959Z,10.32
2018-06-24T10:02:34.686Z,12.93
2018-06-24T10:07:39.073Z,13.13
2018-06-24T10:12:42.892Z,12.00
2018-06-24T10:17:47.463Z,12.20
2018-06-24T10:22:51.004Z,12.28
2018-06-24T10:27:54.705Z,11.30
2018-06-24T10:32:58.220Z,12.80
2018-06-24T10:38:03.424Z,10.88
2018-06-24T10:43:07.128Z,12.90
2018-06-24T10:48:10.627Z,12.10
2018-06-24T10:53:14.024Z,12.70
2018-06-24T10:58:17.601Z,12.53
2018-06-24T11:03:21.711Z,12.00
2018-06-24T11:08:25.399Z,14.40
2018-06-24T11:13:28.843Z,12.80
2018-06-24T11:18:33.784Z,11.57
2018-06-24T11:23:37.241Z,12.80
2018-06-24T11:28:41.063Z,12.47
2018-06-24T11:33:45.715Z,11.18
2018-06-24T11:38:49.330Z,9.30
2018-06-24T11:43:52.808Z,9.20
2018-06-24T11:48:56.237Z,8.60
2018-06-24T11:53:59.791Z,7.87
2018-06-24T11:59:03.302Z,6.30
2018-06-24T12:04:10.995Z,6.37
2018-06-24T12:09:14.440Z,6.20
2018-06-24T12:14:17.952Z,5.70
2018-06-24T12:19:22.254Z,6.37
2018-06-24T12:24:25.931Z,6.67
2018-06-24T12:29:29.444Z,7.28
2018-06-24T12:34:36.274Z,6.95
2018-06-24T12:39:39.733Z,6.40
2018-06-24T12:44:43.213Z,6.27
2018-06-24T12:49:46.863Z,5.85
2018-06-24T12:54:50.384Z,5.97
2018-06-24T12:59:55.364Z,6.10
2018-06-24T13:05:03.815Z,5.03
2018-06-24T13:10:08.747Z,5.78
2018-06-24T13:15:13.456Z,5.40
2018-06-24T13:20:17.768Z,5.65
2018-06-24T13:25:21.239Z,5.30
2018-06-24T13:30:25.171Z,5.30
2018-06-24T13:35:32.384Z,5.20
2018-06-24T13:40:35.883Z,5.00
2018-06-24T13:45:40.299Z,5.95
2018-06-24T13:50:46.157Z,6.20
2018-06-24T13:55:51.388Z,5.47
2018-06-24T14:00:55.951Z,6.12
2018-06-24T14:06:03.634Z,5.97
2018-06-24T14:11:12.759Z,4.60
2018-06-24T14:16:16.169Z,4.90
2018-06-24T14:21:28.973Z,4.20
2018-06-24T14:26:32.785Z,4.30
2018-06-24T14:31:44.502Z,4.50
2018-06-24T14:37:02.895Z,4.40
2018-06-24T14:42:19.775Z,5.07
2018-06-24T14:52:55.430Z,5.00
2018-06-24T14:57:58.941Z,5.37
2018-06-24T15:03:06.865Z,4.83
2018-06-24T15:08:25.286Z,4.90
2018-06-24T15:13:49.632Z,4.87
2018-06-24T15:19:10.446Z,4.60
2018-06-24T15:24:23.949Z,4.50
2018-06-24T15:29:41.426Z,3.70
2018-06-24T15:34:49.528Z,3.40
2018-06-24T15:39:57.806Z,3.80
2018-06-24T15:45:02.650Z,3.80
2018-06-24T15:50:15.487Z,4.40
2018-06-24T15:55:25.076Z,5.20
2018-06-24T16:00:28.739Z,4.80
2018-06-24T16:05:32.257Z,9.40
2018-06-24T16:10:37.647Z,4.80
2018-06-24T16:15:42.368Z,2.83
2018-06-24T16:20:46.131Z,2.87
2018-06-24T16:25:51.953Z,3.20
2018-06-24T16:30:55.397Z,2.70
2018-06-24T16:36:00.237Z,2.90
2018-06-24T16:41:04.886Z,3.00
2018-06-24T16:46:08.490Z,2.85
2018-06-24T16:51:13.306Z,2.80
2018-06-24T16:56:16.843Z,2.58
2018-06-24T17:01:21.018Z,3.10
2018-06-24T17:06:24.666Z,3.70
2018-06-24T17:11:28.555Z,2.70
2018-06-24T17:16:32.167Z,3.20
2018-06-24T17:21:36.599Z,3.55
2018-06-24T17:26:39.976Z,2.87
2018-06-24T17:31:52.970Z,2.95
2018-06-24T17:42:16.427Z,3.12
2018-06-24T17:53:03.793Z,3.20
2018-06-24T17:58:20.821Z,3.30
2018-06-24T18:03:25.234Z,3.60
2018-06-24T18:09:00.993Z,3.20
2018-06-24T18:14:11.689Z,3.20
2018-06-24T18:19:22.506Z,3.00
2018-06-24T18:24:33.649Z,3.12
2018-06-24T18:29:37.944Z,3.30
2018-06-24T18:34:43.556Z,2.92
2018-06-24T18:39:47.158Z,3.17
2018-06-24T18:44:58.259Z,2.98
2018-06-24T18:50:25.638Z,2.80
2018-06-24T18:55:40.250Z,2.62
2018-06-24T19:00:46.020Z,3.13
2018-06-24T19:05:50.549Z,2.95
2018-06-24T19:10:55.584Z,2.90
2018-06-24T19:16:11.895Z,3.50
2018-06-24T19:21:15.711Z,2.98
2018-06-24T19:31:53.609Z,2.90
2018-06-24T19:42:10.014Z,3.10
2018-06-24T19:47:18.040Z,3.33
2018-06-24T19:58:02.778Z,2.60
2018-06-24T20:08:31.228Z,2.50
2018-06-24T20:13:37.354Z,2.85
2018-06-24T20:18:44.599Z,2.90
2018-06-24T20:23:58.601Z,2.27
2018-06-24T20:29:04.292Z,2.10
2018-06-24T20:34:10.402Z,2.25
2018-06-24T20:39:24.567Z,2.60
2018-06-24T20:44:41.330Z,2.33
2018-06-24T20:49:55.874Z,2.57
2018-06-24T20:55:03.081Z,2.40
2018-06-24T21:00:07.207Z,2.70
2018-06-24T21:05:10.821Z,2.00
2018-06-24T21:10:31.841Z,2.30
2018-06-24T21:15:43.036Z,2.12
2018-06-24T21:20:50.646Z,2.03
2018-06-24T21:31:13.092Z,2.50
2018-06-24T21:36:22.082Z,4.50
2018-06-24T21:41:29.186Z,2.33
2018-06-24T21:46:40.087Z,2.10
2018-06-24T21:51:50.869Z,1.92
2018-06-24T21:56:54.389Z,2.30
2018-06-24T22:02:01.100Z,2.20
2018-06-24T22:07:09.485Z,2.30
2018-06-24T22:12:15.298Z,2.25
2018-06-24T22:17:21.365Z,2.30
2018-06-24T22:22:26.494Z,2.45
2018-06-24T22:27:30.350Z,2.40
2018-06-24T22:32:39.405Z,2.10
2018-06-24T22:37:45.699Z,2.40
2018-06-24T22:42:50.590Z,2.60
2018-06-24T22:47:56.140Z,2.40
2018-06-24T22:53:05.816Z,2.60
2018-06-24T22:58:09.371Z,2.58
2018-06-24T23:03:12.992Z,2.60
2018-06-24T23:08:17.489Z,2.42
2018-06-24T23:13:21.098Z,2.50
2018-06-24T23:18:24.535Z,2.70
2018-06-24T23:23:28.100Z,2.60
2018-06-24T23:28:31.638Z,2.50
2018-06-24T23:33:35.268Z,2.60
2018-06-24T23:38:38.979Z,2.70
2018-06-24T23:43:42.389Z,2.90
2018-06-24T23:48:45.803Z,2.60
2018-06-24T23:53:53.531Z,2.65
2018-06-24T23:58:56.992Z,2.70
